createdAt,value
2023-01-29T00:03:45.708Z,2.06
2023-01-29T00:08:47.405Z,2.02
2023-01-29T00:13:50.558Z,2.02
2023-01-29T00:18:52.671Z,1.95
2023-01-29T00:23:55.205Z,1.81
2023-01-29T00:28:57.515Z,1.83
2023-01-29T00:33:59.228Z,1.89
2023-01-29T00:39:02.536Z,1.93
2023-01-29T00:44:24.183Z,1.98
2023-01-29T00:49:26.589Z,2.01
2023-01-29T00:54:28.409Z,2.09
2023-01-29T00:59:30.586Z,2.00
2023-01-29T01:04:34.134Z,1.99
2023-01-29T01:09:55.986Z,1.95
2023-01-29T01:14:58.026Z,1.87
2023-01-29T01:19:59.776Z,1.85
2023-01-29T01:25:01.553Z,1.97
2023-01-29T01:30:04.545Z,2.09
2023-01-29T01:35:06.654Z,2.06
2023-01-29T01:40:19.421Z,2.10
2023-01-29T01:45:27.349Z,2.17
2023-01-29T01:50:42.676Z,2.16
2023-01-29T01:55:55.951Z,2.17
2023-01-29T02:00:58.813Z,2.22
2023-01-29T02:06:19.361Z,2.24
2023-01-29T02:11:21.550Z,2.23
2023-01-29T02:16:23.867Z,2.24
2023-01-29T02:21:45.317Z,2.24
2023-01-29T02:26:54.735Z,2.27
2023-01-29T02:32:14.278Z,2.25
2023-01-29T02:37:16.126Z,2.25
2023-01-29T02:42:44.392Z,2.16
2023-01-29T02:47:58.721Z,2.07
2023-01-29T02:53:07.858Z,2.05
2023-01-29T02:58:33.046Z,2.02
2023-01-29T03:03:41.245Z,2.06
2023-01-29T03:08:50.049Z,2.11
2023-01-29T03:13:51.799Z,2.05
2023-01-29T03:19:12.503Z,1.85
2023-01-29T03:24:36.213Z,1.69
2023-01-29T03:29:58.490Z,1.58
2023-01-29T03:35:13.023Z,1.45
2023-01-29T03:40:16.391Z,1.47
2023-01-29T03:45:43.178Z,1.57
2023-01-29T03:51:00.531Z,1.69
2023-01-29T03:56:11.434Z,1.82
2023-01-29T04:01:39.443Z,1.90
2023-01-29T04:06:45.816Z,1.75
2023-01-29T04:12:10.857Z,1.65
2023-01-29T04:17:20.628Z,1.72
2023-01-29T04:22:39.499Z,1.74
2023-01-29T04:28:12.584Z,1.69
2023-01-29T04:33:33.153Z,1.57
2023-01-29T04:38:53.109Z,1.44
2023-01-29T04:44:00.911Z,1.29
2023-01-29T04:49:14.691Z,1.30
2023-01-29T04:54:32.680Z,1.19
2023-01-29T04:59:41.199Z,1.26
2023-01-29T05:04:46.026Z,1.28
2023-01-29T05:09:49.496Z,1.26
2023-01-29T05:14:53.074Z,1.27
2023-01-29T05:19:56.626Z,1.14
2023-01-29T05:24:58.246Z,1.18
2023-01-29T05:30:00.349Z,1.16
2023-01-29T05:35:02.042Z,1.20
2023-01-29T05:40:03.961Z,1.26
2023-01-29T05:45:06.674Z,1.31
2023-01-29T05:50:09.242Z,1.36
2023-01-29T05:55:11.140Z,1.47
2023-01-29T06:00:13.562Z,1.59
2023-01-29T06:05:15.387Z,1.65
2023-01-29T06:10:18.850Z,1.71
2023-01-29T06:15:21.159Z,1.74
2023-01-29T06:20:23.596Z,1.71
2023-01-29T06:25:25.255Z,1.72
2023-01-29T06:30:28.412Z,1.73
2023-01-29T06:35:30.190Z,1.73
2023-01-29T06:40:31.809Z,1.61
2023-01-29T06:45:33.495Z,1.61
2023-01-29T06:50:35.375Z,1.66
2023-01-29T06:55:37.053Z,1.64
2023-01-29T07:00:39.062Z,1.54
2023-01-29T07:05:41.212Z,1.56
2023-01-29T07:10:43.453Z,1.47
2023-01-29T07:15:45.112Z,1.44
2023-01-29T07:20:46.735Z,1.50
2023-01-29T07:25:49.860Z,1.50
2023-01-29T07:30:56.555Z,1.60
2023-01-29T07:35:58.304Z,1.51
2023-01-29T07:41:01.306Z,1.47
2023-01-29T07:46:04.577Z,1.32
2023-01-29T07:51:06.598Z,1.29
2023-01-29T07:56:08.333Z,1.29
2023-01-29T08:01:10.177Z,1.30
2023-01-29T08:06:11.901Z,1.23
2023-01-29T08:11:13.546Z,1.23
2023-01-29T08:16:15.609Z,1.20
2023-01-29T08:21:17.359Z,1.19
2023-01-29T08:26:19.118Z,1.17
2023-01-29T08:31:21.127Z,1.09
2023-01-29T08:36:23.053Z,1.11
2023-01-29T08:41:24.848Z,1.16
2023-01-29T08:46:26.546Z,1.24
2023-01-29T08:51:28.958Z,1.28
2023-01-29T08:56:30.595Z,1.22
2023-01-29T09:01:32.280Z,1.20
2023-01-29T09:06:34.463Z,1.23
2023-01-29T09:11:36.191Z,1.22
2023-01-29T09:16:38.032Z,1.32
2023-01-29T09:21:39.742Z,1.38
2023-01-29T09:26:41.393Z,1.39
2023-01-29T09:31:43.190Z,1.29
2023-01-29T09:36:44.955Z,1.32
2023-01-29T09:42:01.565Z,1.44
2023-01-29T09:47:07.203Z,1.36
2023-01-29T09:52:18.588Z,1.37
2023-01-29T09:57:31.890Z,1.46
2023-01-29T10:03:11.177Z,1.60
2023-01-29T10:08:24.853Z,1.68
2023-01-29T10:13:26.595Z,1.60
2023-01-29T10:18:31.049Z,1.55
2023-01-29T10:23:42.580Z,1.57
2023-01-29T10:28:48.364Z,1.52
2023-01-29T10:34:02.120Z,1.49
2023-01-29T10:39:04.502Z,1.55
2023-01-29T10:44:30.988Z,1.61
2023-01-29T10:49:54.529Z,1.56
2023-01-29T10:55:15.895Z,1.62
2023-01-29T11:00:39.216Z,1.72
2023-01-29T11:06:08.271Z,1.74
2023-01-29T11:11:18.040Z,1.79
2023-01-29T11:16:19.797Z,1.73
2023-01-29T11:21:23.038Z,1.89
2023-01-29T11:26:24.897Z,1.94
2023-01-29T11:31:37.085Z,1.96
2023-01-29T11:36:39.738Z,1.85
2023-01-29T11:41:49.407Z,1.84
2023-01-29T11:46:51.226Z,1.78
2023-01-29T11:51:55.910Z,1.86
2023-01-29T11:56:58.522Z,1.68
2023-01-29T12:02:21.328Z,1.89
2023-01-29T12:07:23.173Z,1.78
2023-01-29T12:12:38.021Z,1.74
2023-01-29T12:17:43.460Z,1.69
2023-01-29T12:23:22.164Z,1.74
2023-01-29T12:28:31.551Z,1.81
2023-01-29T12:34:01.865Z,1.68
2023-01-29T12:39:03.792Z,1.62
2023-01-29T12:44:14.487Z,1.68
2023-01-29T12:49:22.979Z,1.79
2023-01-29T12:54:50.048Z,2.00
2023-01-29T12:59:58.968Z,1.95
2023-01-29T13:05:23.071Z,1.79
2023-01-29T13:10:32.622Z,1.75
2023-01-29T13:15:40.720Z,1.74
2023-01-29T13:20:43.485Z,1.81
2023-01-29T13:25:45.051Z,1.85
2023-01-29T13:30:47.505Z,1.81
2023-01-29T13:35:58.875Z,1.74
2023-01-29T13:41:04.404Z,1.67
2023-01-29T13:46:10.028Z,1.74
2023-01-29T13:51:20.064Z,1.85
2023-01-29T13:56:44.852Z,1.80
2023-01-29T14:01:46.521Z,1.76
2023-01-29T14:07:28.425Z,1.63
2023-01-29T14:12:37.354Z,1.71
2023-01-29T14:17:40.213Z,1.88
2023-01-29T14:22:43.090Z,1.89
2023-01-29T14:27:49.005Z,1.79
2023-01-29T14:32:51.629Z,1.92
2023-01-29T14:37:56.003Z,1.93
2023-01-29T14:43:02.845Z,1.81
2023-01-29T14:48:11.165Z,1.80
2023-01-29T14:53:24.105Z,1.78
2023-01-29T14:58:58.010Z,1.84
2023-01-29T15:04:14.545Z,1.80
2023-01-29T15:09:42.316Z,1.77
2023-01-29T15:15:15.256Z,1.72
2023-01-29T15:20:31.350Z,1.62
2023-01-29T15:25:37.801Z,1.62
2023-01-29T15:30:39.742Z,1.63
2023-01-29T15:35:42.490Z,1.68
2023-01-29T15:41:00.437Z,1.66
2023-01-29T15:46:06.541Z,1.65
2023-01-29T15:51:11.969Z,1.79
2023-01-29T15:56:18.575Z,1.80
2023-01-29T16:01:20.530Z,1.78
2023-01-29T16:06:23.526Z,1.89
2023-01-29T16:11:25.572Z,2.20
2023-01-29T16:16:28.082Z,2.30
2023-01-29T16:21:40.665Z,2.31
2023-01-29T16:26:45.278Z,2.22
2023-01-29T16:31:50.753Z,2.12
2023-01-29T16:36:54.685Z,2.08
2023-01-29T16:42:29.698Z,2.10
2023-01-29T16:47:41.452Z,1.88
2023-01-29T16:53:00.394Z,1.72
2023-01-29T16:58:13.400Z,1.66
2023-01-29T17:03:17.200Z,1.63
2023-01-29T17:08:34.120Z,1.68
2023-01-29T17:13:42.860Z,1.62
2023-01-29T17:18:44.506Z,1.45
2023-01-29T17:23:46.308Z,1.57
2023-01-29T17:28:52.262Z,1.48
2023-01-29T17:33:53.943Z,1.40
2023-01-29T17:38:55.645Z,1.41
2023-01-29T17:43:57.324Z,1.37
2023-01-29T17:48:59.128Z,1.42
2023-01-29T17:54:00.927Z,1.31
2023-01-29T17:59:02.619Z,1.44
2023-01-29T18:04:05.276Z,1.48
2023-01-29T18:09:07.548Z,1.56
2023-01-29T18:14:13.982Z,1.51
2023-01-29T18:19:21.371Z,1.61
2023-01-29T18:24:23.545Z,1.61
2023-01-29T18:29:29.938Z,1.52
2023-01-29T18:34:31.629Z,1.40
2023-01-29T18:39:51.540Z,1.33
2023-01-29T18:44:53.258Z,1.35
2023-01-29T18:49:55.150Z,1.35
2023-01-29T18:54:58.027Z,1.42
2023-01-29T18:59:59.777Z,1.43
2023-01-29T19:05:01.814Z,1.46
2023-01-29T19:10:06.778Z,1.41
2023-01-29T19:15:10.067Z,1.37
2023-01-29T19:20:12.256Z,1.36
2023-01-29T19:25:14.085Z,1.39
2023-01-29T19:30:16.078Z,1.34
2023-01-29T19:35:18.135Z,1.37
2023-01-29T19:40:20.995Z,1.29
2023-01-29T19:45:37.060Z,1.23
2023-01-29T19:50:52.946Z,1.20
2023-01-29T19:56:03.059Z,1.19
2023-01-29T20:01:07.726Z,1.19
2023-01-29T20:06:09.612Z,1.02
2023-01-29T20:11:13.096Z,1.07
2023-01-29T20:16:14.897Z,1.14
2023-01-29T20:21:20.485Z,1.12
2023-01-29T20:26:22.726Z,1.04
2023-01-29T20:31:24.612Z,1.01
2023-01-29T20:36:26.329Z,0.94
2023-01-29T20:41:28.920Z,0.97
2023-01-29T20:46:30.575Z,0.96
2023-01-29T20:51:32.368Z,0.97
2023-01-29T20:56:41.023Z,0.87
2023-01-29T21:01:48.328Z,0.85
2023-01-29T21:06:50.100Z,0.82
2023-01-29T21:11:51.910Z,0.82
2023-01-29T21:16:53.805Z,0.85
2023-01-29T21:21:57.872Z,0.88
2023-01-29T21:26:59.792Z,0.89
2023-01-29T21:32:01.675Z,0.87
2023-01-29T21:37:03.353Z,0.87
2023-01-29T21:42:23.890Z,0.84
2023-01-29T21:47:25.619Z,0.82
2023-01-29T21:52:27.338Z,0.77
2023-01-29T21:57:28.970Z,0.75
2023-01-29T22:02:32.071Z,0.74
2023-01-29T22:07:34.470Z,0.76
2023-01-29T22:12:36.524Z,0.75
2023-01-29T22:17:41.204Z,0.70
2023-01-29T22:22:43.121Z,0.72
2023-01-29T22:27:44.763Z,0.69
2023-01-29T22:32:46.427Z,0.68
2023-01-29T22:37:48.110Z,0.66
2023-01-29T22:42:50.077Z,0.61
2023-01-29T22:47:51.836Z,0.56
2023-01-29T22:52:54.250Z,0.47
2023-01-29T22:57:56.089Z,0.50
2023-01-29T23:02:57.812Z,0.56
2023-01-29T23:07:59.541Z,0.62
2023-01-29T23:13:01.240Z,0.62
2023-01-29T23:18:03.412Z,0.54
2023-01-29T23:23:05.129Z,0.49
2023-01-29T23:28:06.865Z,0.42
2023-01-29T23:33:11.875Z,0.36
2023-01-29T23:38:13.872Z,0.36
2023-01-29T23:43:15.568Z,0.38
2023-01-29T23:48:17.253Z,0.39
2023-01-29T23:53:18.940Z,0.35
2023-01-29T23:58:20.591Z,0.29
